Nunapitchuk, Alaska
Current Conditions -  °F | °C
As of 4:56 PM on Monday 22 Dec 2014 (Local Time) from PPIT Reporting Station
Overcast Overcast  
Wind Chill: -9°   Ceiling: 3000
Heat Index:   Visibility: 10mi
Dew Point:   Wind: 13mph
Humidity: 87%   Direction: 360°N
Pressure: 29.98"   Gusts: NA
Location:  60.9°N, 162.46°W
Report Text: PPIT 230156Z AUTO 36011KT 10SM OVC030 M14/M16 A2998 RMK AO2 SNE07 SLP150 P0000 T11391156 FZRANO
Loading
Personal Weather Stations






























Interactive Weather Map New forecast layout! Learn more

10-Day Weather Forecast

Advertisements
Track Severe Weather on mobile